Time;durP1;ratioP1;P1;durP2;ratioP2;P2;SDS_P1;SDS_P2;PMS_P1;PMS_P2;Temp;Humidity;BMP_temperature;BMP_pressure;BME280_temperature;BME280_humidity;BME280_pressure;Samples;Min_cycle;Max_cycle;Signal;HPM_P1;HPM_P2
2024/01/20 00:01:11;;;;;;;4.10;1.90;;;20.20;57.80;;;;;;5073202;28;20093;-28
2024/01/20 00:03:39;;;;;;;3.78;1.98;;;19.10;37.40;;;;;;5072682;28;20689;-28
2024/01/20 00:06:06;;;;;;;3.15;2.10;;;19.50;58.10;;;;;;5072976;28;20102;-28
2024/01/20 00:08:33;;;;;;;2.90;2.00;;;19.40;56.70;;;;;;5071887;28;20076;-29
2024/01/20 00:11:00;;;;;;;2.65;1.80;;;19.10;58.00;;;;;;5072566;28;20594;-38
2024/01/20 00:13:27;;;;;;;4.10;1.90;;;;;;;;;;5072346;28;20048;-34
2024/01/20 00:15:54;;;;;;;3.63;2.20;;;;;;;;;;5072656;28;20124;-35
2024/01/20 00:18:21;;;;;;;2.50;1.88;;;;;;;;;;5072407;28;20468;-33
2024/01/20 00:20:50;;;;;;;4.65;2.28;;;18.40;57.80;;;;;;5070347;28;20048;-34
2024/01/20 00:23:16;;;;;;;4.25;2.25;;;19.00;57.90;;;;;;5052612;28;20049;-34
2024/01/20 00:25:43;;;;;;;3.50;1.90;;;19.70;40.30;;;;;;5052138;28;20045;-33
2024/01/20 00:28:10;;;;;;;3.05;2.08;;;18.50;57.70;;;;;;5050985;28;20483;-28
2024/01/20 00:30:37;;;;;;;3.45;2.33;;;;;;;;;;5052344;28;20056;-28
2024/01/20 00:33:06;;;;;;;3.13;2.28;;;19.80;58.60;;;;;;5055668;28;20044;-28
2024/01/20 00:35:34;;;;;;;2.17;1.67;;;;;;;;;;5063708;28;20118;-27
2024/01/20 00:38:02;;;;;;;3.45;2.30;;;19.30;58.70;;;;;;5069445;28;20056;-28
2024/01/20 00:40:29;;;;;;;3.90;2.30;;;;;;;;;;5071949;28;20076;-37
2024/01/20 00:42:56;;;;;;;2.70;2.00;;;;;;;;;;5072043;28;20082;-34
2024/01/20 00:45:23;;;;;;;4.82;2.60;;;18.30;58.10;;;;;;5071997;28;20052;-33
2024/01/20 00:47:50;;;;;;;2.88;2.00;;;;;;;;;;5071947;28;20521;-33
2024/01/20 00:50:17;;;;;;;3.22;2.40;;;19.10;59.00;;;;;;5057116;28;20041;-38
2024/01/20 00:52:44;;;;;;;3.65;2.67;;;;;;;;;;5051854;28;20053;-36
2024/01/20 00:55:12;;;;;;;4.90;2.42;;;18.20;58.60;;;;;;5051716;28;20107;-36
2024/01/20 00:57:39;;;;;;;4.03;2.40;;;;;;;;;;5062668;28;20478;-34
2024/01/20 01:00:09;;;;;;;3.03;2.53;;;18.40;38.10;;;;;;5072059;28;20048;-37
2024/01/20 01:02:35;;;;;;;4.15;2.40;;;18.10;58.50;;;;;;5070988;28;20087;-27
2024/01/20 01:05:03;;;;;;;4.93;2.65;;;;;;;;;;5051708;28;20048;-31
2024/01/20 01:07:30;;;;;;;3.35;2.30;;;18.40;58.70;;;;;;5051702;28;20045;-28
2024/01/20 01:09:57;;;;;;;4.10;2.33;;;17.70;45.90;;;;;;5051776;28;20053;-29
2024/01/20 01:12:25;;;;;;;3.88;2.38;;;17.90;58.90;;;;;;5051503;28;20048;-28
2024/01/20 01:14:52;;;;;;;5.07;2.50;;;17.90;58.60;;;;;;5051539;28;20053;-27
2024/01/20 01:17:19;;;;;;;3.13;2.55;;;;;;;;;;5051768;28;20053;-32
2024/01/20 01:19:46;;;;;;;2.92;2.28;;;18.10;59.20;;;;;;5051687;28;20540;-35
2024/01/20 01:22:13;;;;;;;4.35;2.67;;;;;;;;;;5051550;28;20068;-31
2024/01/20 01:24:40;;;;;;;2.40;2.08;;;18.20;59.30;;;;;;5051371;28;20456;-33
2024/01/20 01:27:07;;;;;;;4.72;2.47;;;;;;;;;;5051729;28;20049;-35
2024/01/20 01:29:35;;;;;;;3.00;2.28;;;18.10;59.40;;;;;;5071427;28;20059;-37
2024/01/20 01:32:02;;;;;;;4.40;2.60;;;17.20;59.00;;;;;;5071536;28;20098;-29
2024/01/20 01:34:29;;;;;;;3.72;2.65;;;17.80;58.90;;;;;;5057452;28;20045;-28
2024/01/20 01:36:56;;;;;;;4.28;2.60;;;17.00;50.70;;;;;;5059640;28;20044;-34
2024/01/20 01:39:22;;;;;;;3.85;2.50;;;18.10;59.20;;;;;;5072091;28;20098;-35
2024/01/20 01:41:50;;;;;;;4.20;2.75;;;;;;;;;;5075609;28;20079;-31
2024/01/20 01:44:16;;;;;;;5.13;2.65;;;17.80;59.20;;;;;;5075344;28;20051;-34
2024/01/20 01:46:45;;;;;;;3.85;2.80;;;18.30;59.40;;;;;;5075335;28;20052;-28
2024/01/20 01:49:11;;;;;;;2.95;2.55;;;17.90;59.60;;;;;;5056056;28;20130;-28
2024/01/20 01:51:38;;;;;;;4.35;2.97;;;;;;;;;;5055424;28;20517;-28
2024/01/20 01:54:06;;;;;;;4.30;2.90;;;;;;;;;;5054982;28;20049;-34
2024/01/20 01:56:32;;;;;;;3.80;2.85;;;18.10;51.30;;;;;;5056777;28;20053;-37
2024/01/20 01:58:59;;;;;;;3.35;2.60;;;17.90;59.90;;;;;;5075255;28;20457;-35
2024/01/20 02:01:26;;;;;;;4.05;2.70;;;;;;;;;;5075233;28;20053;-33
2024/01/20 02:03:54;;;;;;;5.18;3.05;;;18.60;58.30;;;;;;5067353;28;20041;-34
2024/01/20 02:06:21;;;;;;;5.15;3.00;;;18.70;60.30;;;;;;5054811;28;20067;-35
2024/01/20 02:08:48;;;;;;;2.97;2.50;;;;;;;;;;5054955;28;20052;-33
2024/01/20 02:11:15;;;;;;;3.60;3.00;;;17.20;59.70;;;;;;5055053;28;20073;-28
2024/01/20 02:13:43;;;;;;;5.20;2.80;;;;;;;;;;5054681;28;20068;-32
2024/01/20 02:16:09;;;;;;;4.38;2.88;;;17.50;59.40;;;;;;5054620;28;20049;-33
2024/01/20 02:18:36;;;;;;;6.18;3.25;;;17.10;59.30;;;;;;5055113;28;20445;-36
2024/01/20 02:21:07;;;;;;;5.38;3.15;;;18.10;56.10;;;;;;5055885;28;20049;-28
2024/01/20 02:23:38;;;;;;;4.75;2.90;;;17.10;59.70;;;;;;5054523;28;20052;-28
2024/01/20 02:26:05;;;;;;;4.88;3.30;;;;;;;;;;5062349;28;20460;-32
2024/01/20 02:28:32;;;;;;;5.43;3.22;;;17.70;59.70;;;;;;5071693;28;20052;-28
2024/01/20 02:30:58;;;;;;;5.45;3.47;;;17.30;59.40;;;;;;5054547;28;20095;-28
2024/01/20 02:33:26;;;;;;;4.07;3.28;;;;;;;;;;5054718;28;20045;-34
2024/01/20 02:35:52;;;;;;;6.68;3.42;;;16.70;57.10;;;;;;5053984;28;20045;-35
2024/01/20 02:38:19;;;;;;;4.78;3.10;;;;;;;;;;5054148;28;20053;-30
2024/01/20 02:40:48;;;;;;;4.80;3.20;;;17.50;38.80;;;;;;5054493;28;20053;-28
2024/01/20 02:43:15;;;;;;;3.85;3.45;;;17.30;60.00;;;;;;5054360;28;20049;-35
2024/01/20 02:45:42;;;;;;;4.85;3.50;;;17.60;59.70;;;;;;5054453;28;20053;-35
2024/01/20 02:48:10;;;;;;;4.68;3.60;;;19.30;39.80;;;;;;5054190;28;20049;-28
2024/01/20 02:50:37;;;;;;;5.53;3.47;;;17.50;60.20;;;;;;5054173;28;20073;-28
2024/01/20 02:53:04;;;;;;;4.55;3.25;;;17.20;47.20;;;;;;5062479;28;20052;-29
2024/01/20 02:55:32;;;;;;;5.18;3.50;;;18.50;60.80;;;;;;5074350;28;20056;-29
2024/01/20 02:58:01;;;;;;;4.47;3.40;;;17.80;60.30;;;;;;5073944;28;20053;-28
2024/01/20 03:00:28;;;;;;;5.07;3.60;;;17.50;59.90;;;;;;5074150;28;20049;-28
2024/01/20 03:02:55;;;;;;;4.32;3.30;;;18.00;60.10;;;;;;5074121;28;20062;-28
2024/01/20 03:05:22;;;;;;;6.13;3.53;;;;;;;;;;5073729;28;20048;-33
2024/01/20 03:07:49;;;;;;;4.30;3.38;;;17.70;59.90;;;;;;5074017;28;20459;-28
2024/01/20 03:10:16;;;;;;;4.47;3.53;;;17.50;60.20;;;;;;5059448;28;20052;-28
2024/01/20 03:12:43;;;;;;;7.05;4.00;;;18.30;60.50;;;;;;5053912;28;20053;-34
2024/01/20 03:15:11;;;;;;;6.35;3.92;;;17.70;60.20;;;;;;5053512;28;20518;-35
2024/01/20 03:17:38;;;;;;;5.57;3.70;;;18.00;60.00;;;;;;5054017;28;20056;-33
2024/01/20 03:20:06;;;;;;;5.22;3.90;;;18.00;49.30;;;;;;5053572;28;20502;-28
2024/01/20 03:22:33;;;;;;;4.20;3.72;;;17.80;41.40;;;;;;5063187;28;20049;-30
2024/01/20 03:24:59;;;;;;;5.88;3.50;;;17.40;59.80;;;;;;5073449;28;20094;-28
2024/01/20 03:27:26;;;;;;;4.18;3.40;;;18.00;60.10;;;;;;5059440;28;20117;-28
2024/01/20 03:29:53;;;;;;;4.82;3.58;;;18.20;46.70;;;;;;5053900;28;20049;-29
2024/01/20 03:32:21;;;;;;;5.03;3.67;;;19.10;60.50;;;;;;5053481;28;20045;-28
2024/01/20 03:34:48;;;;;;;5.15;3.78;;;16.90;58.90;;;;;;5053324;28;20045;-34
2024/01/20 03:37:15;;;;;;;5.53;3.95;;;;;;;;;;5064104;28;20056;-36
2024/01/20 03:39:42;;;;;;;4.70;3.20;;;17.50;59.40;;;;;;5073296;28;20056;-28
2024/01/20 03:42:08;;;;;;;3.90;3.42;;;18.60;59.50;;;;;;5072728;28;20102;-28
2024/01/20 03:44:35;;;;;;;5.90;3.75;;;19.10;44.70;;;;;;5073310;28;20049;-30
2024/01/20 03:47:02;;;;;;;5.50;3.58;;;18.00;58.90;;;;;;5073116;28;20056;-27
2024/01/20 03:49:30;;;;;;;4.95;3.70;;;18.30;59.00;;;;;;5068285;28;20106;-27
2024/01/20 03:51:57;;;;;;;5.75;3.70;;;;;;;;;;5052848;28;20056;-28
2024/01/20 03:54:24;;;;;;;5.05;3.40;;;18.50;59.10;;;;;;5053026;28;20048;-28
2024/01/20 03:56:51;;;;;;;4.88;3.83;;;;;;;;;;5057211;28;20040;-28
2024/01/20 03:59:18;;;;;;;6.15;3.63;;;18.80;55.70;;;;;;5059276;28;20053;-28
2024/01/20 04:01:45;;;;;;;4.55;3.42;;;17.80;58.70;;;;;;5052614;28;20104;-38
2024/01/20 04:04:12;;;;;;;4.78;3.70;;;;;;;;;;5052376;28;20111;-32
2024/01/20 04:06:40;;;;;;;5.75;3.88;;;18.40;59.00;;;;;;5052839;28;20067;-34
2024/01/20 04:09:07;;;;;;;4.53;3.80;;;;;;;;;;5052810;28;20490;-33
2024/01/20 04:11:34;;;;;;;5.05;4.00;;;;;;;;;;5052572;28;20106;-32
2024/01/20 04:14:01;;;;;;;4.55;3.70;;;19.80;59.30;;;;;;5052594;28;20402;-36
2024/01/20 04:16:28;;;;;;;6.32;3.95;;;;;;;;;;5053614;28;20045;-34
2024/01/20 04:18:55;;;;;;;5.43;4.10;;;18.50;58.80;;;;;;5063031;28;20057;-37
2024/01/20 04:21:23;;;;;;;4.65;3.80;;;19.20;59.20;;;;;;5072500;28;20052;-38
2024/01/20 04:23:51;;;;;;;4.88;3.88;;;19.70;59.70;;;;;;5060553;28;20518;-37
2024/01/20 04:26:18;;;;;;;5.10;3.90;;;;;;;;;;5052649;28;20138;-28
2024/01/20 04:28:45;;;;;;;5.60;3.97;;;19.20;59.00;;;;;;5052632;28;20449;-29
2024/01/20 04:31:12;;;;;;;5.38;4.20;;;;;;;;;;5053666;28;20064;-28
2024/01/20 04:33:40;;;;;;;5.82;4.28;;;;;;;;;;5051987;28;20486;-28
2024/01/20 04:36:07;;;;;;;7.25;4.78;;;18.60;54.40;;;;;;5054077;28;20060;-36
2024/01/20 04:38:34;;;;;;;5.75;4.20;;;19.30;58.70;;;;;;5072237;28;20106;-35
2024/01/20 04:41:02;;;;;;;5.75;4.45;;;19.30;38.40;;;;;;5072140;28;20052;-33
2024/01/20 04:43:29;;;;;;;6.45;4.60;;;18.50;40.00;;;;;;5072148;28;20113;-34
2024/01/20 04:45:55;;;;;;;5.43;3.78;;;18.50;55.90;;;;;;5072026;28;20051;-36
2024/01/20 04:48:23;;;;;;;5.95;4.13;;;;;;;;;;5061799;28;20052;-29
2024/01/20 04:50:50;;;;;;;5.55;4.20;;;19.10;58.40;;;;;;5052456;28;20088;-28
2024/01/20 04:53:17;;;;;;;5.57;3.72;;;18.70;58.20;;;;;;5051874;28;20652;-28
2024/01/20 04:55:43;;;;;;;6.60;4.05;;;20.10;49.70;;;;;;5051919;28;20053;-34
2024/01/20 04:58:12;;;;;;;6.63;4.18;;;18.70;48.60;;;;;;5067030;28;20056;-28
2024/01/20 05:00:38;;;;;;;5.43;4.20;;;18.70;58.20;;;;;;5071636;28;20048;-28
2024/01/20 05:03:05;;;;;;;6.90;4.32;;;18.70;58.10;;;;;;5070870;28;20056;-28
2024/01/20 05:05:32;;;;;;;5.72;3.97;;;18.70;57.90;;;;;;5054419;28;20458;-34
2024/01/20 05:07:59;;;;;;;4.93;4.07;;;19.10;58.60;;;;;;5052084;28;20622;-37
2024/01/20 05:10:26;;;;;;;5.05;4.05;;;18.70;58.40;;;;;;5051713;28;20049;-28
2024/01/20 05:12:53;;;;;;;5.50;4.45;;;19.30;42.60;;;;;;5051738;28;20053;-28
2024/01/20 05:15:21;;;;;;;5.78;4.50;;;18.80;38.30;;;;;;5062150;28;20409;-30
2024/01/20 05:17:48;;;;;;;6.13;4.40;;;18.00;47.10;;;;;;5071503;28;20106;-33
2024/01/20 05:20:15;;;;;;;6.28;4.30;;;19.70;58.50;;;;;;5067886;28;20065;-28
2024/01/20 05:22:43;;;;;;;4.93;4.20;;;;;;;;;;5051722;28;20089;-31
2024/01/20 05:25:09;;;;;;;5.82;4.50;;;19.50;58.90;;;;;;5051542;28;20072;-28
2024/01/20 05:27:37;;;;;;;5.32;4.65;;;;;;;;;;5051259;28;20452;-33
2024/01/20 05:30:04;;;;;;;8.18;5.32;;;20.10;59.00;;;;;;5051461;28;20098;-28
2024/01/20 05:32:32;;;;;;;6.63;4.90;;;19.00;38.00;;;;;;5051641;28;20049;-32
2024/01/20 05:34:59;;;;;;;7.00;5.03;;;19.00;53.20;;;;;;5049925;28;20449;-37
2024/01/20 05:37:26;;;;;;;5.55;4.65;;;19.20;58.30;;;;;;5063566;28;20075;-28
2024/01/20 05:39:53;;;;;;;5.75;4.50;;;;;;;;;;5071121;28;20056;-35
2024/01/20 05:42:20;;;;;;;6.00;4.80;;;;;;;;;;5071526;28;20044;-30
2024/01/20 05:44:47;;;;;;;6.78;5.18;;;;;;;;;;5071133;28;20110;-31
2024/01/20 05:47:14;;;;;;;6.72;5.30;;;19.20;58.30;;;;;;5071422;28;20098;-28
2024/01/20 05:49:42;;;;;;;6.45;5.15;;;19.30;58.50;;;;;;5071587;28;20118;-38
2024/01/20 05:52:10;;;;;;;7.00;4.95;;;18.00;57.60;;;;;;5071259;28;20114;-36
2024/01/20 05:54:37;;;;;;;6.78;5.55;;;19.30;42.40;;;;;;5069538;28;20040;-35
2024/01/20 05:57:04;;;;;;;7.13;5.57;;;19.60;50.70;;;;;;5071209;28;20037;-34
2024/01/20 05:59:30;;;;;;;6.47;5.03;;;19.00;58.20;;;;;;5071410;28;20040;-37
2024/01/20 06:01:58;;;;;;;7.28;5.57;;;;;;;;;;5052386;28;20102;-33
2024/01/20 06:04:24;;;;;;;7.55;5.80;;;19.00;58.40;;;;;;5051203;28;20049;-35
2024/01/20 06:06:53;;;;;;;7.93;5.80;;;19.00;37.90;;;;;;5051240;28;20053;-28
2024/01/20 06:09:20;;;;;;;8.25;6.20;;;18.80;44.20;;;;;;5052367;28;20076;-31
2024/01/20 06:11:46;;;;;;;8.23;6.25;;;19.20;58.10;;;;;;5064477;28;20048;-34
2024/01/20 06:14:13;;;;;;;8.55;6.25;;;18.90;58.50;;;;;;5070766;28;20106;-37
2024/01/20 06:16:41;;;;;;;7.90;5.82;;;17.90;51.10;;;;;;5070950;28;20106;-35
2024/01/20 06:19:08;;;;;;;9.88;6.25;;;19.20;47.10;;;;;;5071314;28;20102;-35
2024/01/20 06:21:35;;;;;;;8.57;6.20;;;;;;;;;;5071133;28;20570;-34
2024/01/20 06:24:04;;;;;;;7.68;6.00;;;19.10;37.90;;;;;;5070875;28;20078;-34
2024/01/20 06:26:31;;;;;;;7.72;5.72;;;19.90;58.50;;;;;;5060984;28;20441;-35
2024/01/20 06:28:57;;;;;;;7.85;6.00;;;18.70;58.30;;;;;;5058448;28;20037;-36
2024/01/20 06:31:24;;;;;;;9.00;6.53;;;19.20;38.00;;;;;;5054814;28;20052;-35
2024/01/20 06:33:51;;;;;;;7.82;6.03;;;18.80;42.90;;;;;;5054431;28;20436;-28
2024/01/20 06:36:19;;;;;;;8.43;5.90;;;;;;;;;;5057550;28;20045;-33
2024/01/20 06:38:47;;;;;;;8.23;5.70;;;;;;;;;;5074501;28;20127;-33
2024/01/20 06:41:15;;;;;;;8.85;6.18;;;18.70;58.00;;;;;;5058627;28;20080;-37
2024/01/20 06:43:42;;;;;;;8.13;6.43;;;18.20;57.40;;;;;;5054588;28;20497;-36
2024/01/20 06:46:09;;;;;;;7.68;6.32;;;18.80;48.50;;;;;;5054090;28;20092;-33
2024/01/20 06:48:36;;;;;;;7.57;5.70;;;19.30;58.10;;;;;;5054290;28;20135;-28
2024/01/20 06:51:03;;;;;;;8.65;6.70;;;20.10;58.90;;;;;;5054429;28;20049;-28
2024/01/20 06:53:30;;;;;;;8.18;6.28;;;19.30;41.10;;;;;;5054297;28;20463;-37
2024/01/20 06:55:57;;;;;;;7.80;6.28;;;19.40;57.10;;;;;;5053948;28;20110;-28
2024/01/20 06:58:25;;;;;;;7.97;5.95;;;18.90;53.10;;;;;;5071254;28;20395;-28
2024/01/20 07:00:52;;;;;;;8.18;6.60;;;19.30;58.20;;;;;;5074017;28;20072;-29
2024/01/20 07:03:19;;;;;;;10.73;6.82;;;18.90;57.90;;;;;;5074171;28;20189;-28
2024/01/20 07:05:45;;;;;;;9.20;6.50;;;19.20;43.10;;;;;;5073940;28;20459;-30
2024/01/20 07:08:12;;;;;;;8.20;6.63;;;;;;;;;;5073815;28;20052;-28
2024/01/20 07:10:40;;;;;;;9.60;6.50;;;;;;;;;;5073461;28;20394;-30
2024/01/20 07:13:06;;;;;;;7.97;6.05;;;18.90;58.30;;;;;;5073662;28;20045;-29
2024/01/20 07:15:34;;;;;;;8.32;6.50;;;18.90;57.90;;;;;;5073648;28;20269;-28
2024/01/20 07:18:03;;;;;;;8.68;6.25;;;;;;;;;;5073769;28;20098;-36
2024/01/20 07:20:30;;;;;;;8.25;6.05;;;20.00;53.20;;;;;;5073794;28;20493;-28
2024/01/20 07:22:57;;;;;;;7.45;6.03;;;18.90;58.00;;;;;;5073332;28;20105;-28
2024/01/20 07:25:24;;;;;;;7.65;6.20;;;;;;;;;;5073620;28;20506;-33
2024/01/20 07:27:51;;;;;;;8.32;6.43;;;18.80;57.80;;;;;;5060977;28;20045;-38
2024/01/20 07:30:18;;;;;;;8.48;6.00;;;18.80;57.90;;;;;;5053478;28;20685;-38
2024/01/20 07:32:46;;;;;;;7.97;6.07;;;18.00;57.40;;;;;;5053678;28;20113;-37
2024/01/20 07:35:13;;;;;;;9.02;6.20;;;18.80;57.80;;;;;;5061744;28;20374;-37
2024/01/20 07:37:41;;;;;;;7.57;6.15;;;19.30;58.10;;;;;;5071748;28;20095;-35
2024/01/20 07:40:09;;;;;;;8.25;6.15;;;19.30;58.20;;;;;;5073404;28;20083;-36
2024/01/20 07:42:37;;;;;;;7.38;5.75;;;;;;;;;;5073165;28;20045;-32
2024/01/20 07:45:04;;;;;;;7.97;6.10;;;19.90;58.50;;;;;;5071643;28;20057;-38
2024/01/20 07:47:31;;;;;;;8.43;6.28;;;19.00;52.30;;;;;;5053159;28;20095;-34
2024/01/20 07:49:59;;;;;;;8.18;6.03;;;19.70;58.40;;;;;;5053270;28;20465;-35
2024/01/20 07:52:26;;;;;;;7.55;5.97;;;19.10;58.40;;;;;;5053298;28;20549;-38
2024/01/20 07:54:53;;;;;;;7.10;5.70;;;;;;;;;;5053094;28;20102;-32
2024/01/20 07:57:20;;;;;;;8.90;5.97;;;19.10;57.80;;;;;;5059953;28;20537;-35
2024/01/20 07:59:46;;;;;;;8.18;5.85;;;19.00;58.20;;;;;;5056341;28;20075;-35
2024/01/20 08:02:14;;;;;;;8.18;5.68;;;20.10;52.20;;;;;;5057660;28;20048;-35
2024/01/20 08:04:41;;;;;;;8.05;5.65;;;;;;;;;;5063628;28;20071;-31
2024/01/20 08:07:09;;;;;;;9.52;5.65;;;19.10;57.80;;;;;;5073052;28;20445;-38
2024/01/20 08:09:36;;;;;;;7.78;5.20;;;19.40;57.90;;;;;;5065646;28;20098;-36
2024/01/20 08:12:03;;;;;;;7.88;5.40;;;20.60;58.50;;;;;;5072502;28;20514;-34
2024/01/20 08:14:30;;;;;;;8.20;5.85;;;19.30;57.70;;;;;;5072295;28;20059;-36
2024/01/20 08:16:57;;;;;;;7.47;5.63;;;18.50;56.90;;;;;;5064492;28;20106;-37
2024/01/20 08:19:24;;;;;;;7.75;5.57;;;;;;;;;;5052825;28;20495;-35
2024/01/20 08:21:51;;;;;;;8.35;6.05;;;19.50;57.40;;;;;;5052838;28;20052;-29
2024/01/20 08:24:19;;;;;;;6.78;5.28;;;18.70;38.00;;;;;;5062619;28;20080;-30
2024/01/20 08:26:46;;;;;;;7.93;5.85;;;20.00;40.70;;;;;;5072584;28;20098;-31
2024/01/20 08:29:13;;;;;;;7.60;5.70;;;19.60;57.20;;;;;;5072245;28;20078;-28
2024/01/20 08:31:40;;;;;;;7.28;5.60;;;;;;;;;;5072792;28;20078;-32
2024/01/20 08:34:07;;;;;;;7.47;5.25;;;20.70;57.50;;;;;;5061099;28;20056;-28
2024/01/20 08:36:34;;;;;;;7.13;5.25;;;19.70;57.00;;;;;;5057586;28;20049;-28
2024/01/20 08:39:00;;;;;;;7.07;5.07;;;19.60;52.60;;;;;;5072417;28;20378;-28
2024/01/20 08:41:29;;;;;;;7.53;5.13;;;20.20;38.20;;;;;;5072125;28;20044;-39
2024/01/20 08:43:55;;;;;;;6.20;4.97;;;20.40;57.50;;;;;;5071228;28;20060;-38
2024/01/20 08:46:22;;;;;;;6.95;5.55;;;;;;;;;;5071928;28;20494;-33
2024/01/20 08:48:49;;;;;;;8.13;5.38;;;19.70;57.20;;;;;;5070563;28;20052;-39
2024/01/20 08:51:16;;;;;;;7.20;5.03;;;19.80;56.80;;;;;;5067830;28;20052;-39
2024/01/20 08:53:43;;;;;;;6.03;4.90;;;20.80;48.80;;;;;;5060566;28;20037;-36
2024/01/20 08:56:10;;;;;;;6.38;4.85;;;20.00;57.30;;;;;;5050922;28;20116;-29
2024/01/20 08:58:38;;;;;;;7.72;5.10;;;20.10;37.30;;;;;;5059804;28;20041;-34
2024/01/20 09:01:06;;;;;;;6.55;5.05;;;20.00;37.20;;;;;;5062511;28;20114;-32
2024/01/20 09:03:33;;;;;;;7.13;5.28;;;;;;;;;;5052033;28;20154;-32
2024/01/20 09:06:00;;;;;;;6.85;4.80;;;19.70;56.70;;;;;;5051766;28;20052;-29
2024/01/20 09:08:27;;;;;;;6.93;5.00;;;20.60;57.60;;;;;;5051873;28;20186;-29
2024/01/20 09:10:53;;;;;;;5.97;4.85;;;20.50;49.10;;;;;;5051744;28;20141;-29
2024/01/20 09:13:20;;;;;;;6.63;4.97;;;21.20;57.80;;;;;;5060786;28;20102;-30
2024/01/20 09:15:48;;;;;;;7.35;5.35;;;20.10;37.10;;;;;;5056876;28;20110;-31
2024/01/20 09:18:16;;;;;;;6.70;4.97;;;19.60;56.80;;;;;;5051990;28;20049;-38
2024/01/20 09:20:43;;;;;;;7.10;4.90;;;20.60;57.00;;;;;;5051914;28;20128;-29
2024/01/20 09:23:10;;;;;;;7.68;5.18;;;;;;;;;;5051741;28;20048;-34
2024/01/20 09:25:37;;;;;;;6.05;4.68;;;;;;;;;;5051651;28;20049;-35
2024/01/20 09:28:05;;;;;;;6.57;5.00;;;20.20;37.10;;;;;;5051384;28;20049;-32
2024/01/20 09:30:35;;;;;;;7.07;4.90;;;19.20;44.20;;;;;;5051840;28;20041;-36
2024/01/20 09:33:04;;;;;;;7.28;4.88;;;20.00;56.40;;;;;;5054675;28;20067;-28
2024/01/20 09:35:31;;;;;;;6.00;4.45;;;20.40;56.60;;;;;;5071072;28;20052;-28
2024/01/20 09:37:58;;;;;;;5.93;4.90;;;20.50;57.20;;;;;;5070807;28;20162;-37
2024/01/20 09:40:25;;;;;;;6.30;4.72;;;21.30;49.90;;;;;;5071735;28;20067;-29
2024/01/20 09:42:51;;;;;;;5.93;4.70;;;20.40;56.80;;;;;;5071464;28;20052;-28
2024/01/20 09:45:19;;;;;;;5.95;4.85;;;;;;;;;;5071109;28;20491;-33
2024/01/20 09:47:46;;;;;;;5.38;4.38;;;19.90;56.40;;;;;;5071666;28;20053;-28
2024/01/20 09:50:14;;;;;;;6.97;5.05;;;21.50;40.00;;;;;;5062492;28;20049;-32
2024/01/20 09:52:46;;;;;;;7.18;4.70;;;20.40;37.10;;;;;;5051436;28;20509;-29
2024/01/20 09:55:16;;;;;;;5.93;4.55;;;20.50;48.40;;;;;;5051845;28;20098;-28
2024/01/20 09:57:42;;;;;;;6.80;4.60;;;20.10;56.40;;;;;;5071458;28;20048;-28
2024/01/20 10:00:10;;;;;;;6.13;4.53;;;20.40;37.00;;;;;;5071702;28;20048;-29
2024/01/20 10:02:37;;;;;;;7.00;5.20;;;;;;;;;;5075505;28;20048;-28
2024/01/20 10:05:05;;;;;;;6.65;4.50;;;21.00;57.10;;;;;;5075023;28;20093;-28
2024/01/20 10:07:33;;;;;;;6.68;4.70;;;20.40;56.40;;;;;;5075540;28;20157;-29
2024/01/20 10:10:00;;;;;;;6.15;4.60;;;20.40;39.20;;;;;;5061940;28;20048;-31
2024/01/20 10:12:27;;;;;;;6.03;4.55;;;20.40;37.40;;;;;;5056069;28;20099;-35
2024/01/20 10:14:54;;;;;;;6.30;4.50;;;;;;;;;;5074892;28;20106;-34
2024/01/20 10:17:21;;;;;;;6.70;4.75;;;;;;;;;;5075029;28;20048;-30
2024/01/20 10:19:48;;;;;;;6.65;4.47;;;;;;;;;;5060770;28;20079;-31
2024/01/20 10:22:15;;;;;;;6.05;4.47;;;20.80;57.00;;;;;;5055006;28;20102;-28
2024/01/20 10:24:49;;;;;;;7.18;5.07;;;20.50;36.90;;;;;;5054868;28;20049;-33
2024/01/20 10:27:16;;;;;;;5.78;4.43;;;21.10;42.80;;;;;;5054943;28;20053;-31
2024/01/20 10:29:43;;;;;;;6.70;4.32;;;;;;;;;;5054814;28;20053;-29
2024/01/20 10:32:10;;;;;;;6.75;4.80;;;21.30;42.00;;;;;;5054642;28;20494;-35
2024/01/20 10:34:37;;;;;;;5.93;4.43;;;20.90;56.40;;;;;;5064277;28;20044;-28
2024/01/20 10:37:06;;;;;;;5.60;4.30;;;20.40;56.60;;;;;;5062355;28;20092;-28
2024/01/20 10:39:33;;;;;;;6.75;4.75;;;20.80;56.80;;;;;;5059752;28;20461;-28
2024/01/20 10:42:01;;;;;;;6.43;4.28;;;20.90;56.30;;;;;;5063764;28;20086;-28
2024/01/20 10:44:28;;;;;;;5.95;4.43;;;20.30;56.00;;;;;;5064801;28;20532;-38
2024/01/20 10:46:55;;;;;;;5.28;4.13;;;;;;;;;;5064019;28;20072;-38
2024/01/20 10:49:23;;;;;;;6.93;4.85;;;;;;;;;;5063327;28;20587;-31
2024/01/20 10:51:50;;;;;;;5.22;4.03;;;20.30;55.90;;;;;;5056552;28;20124;-28
2024/01/20 10:54:17;;;;;;;5.35;4.07;;;;;;;;;;5063948;28;20086;-33
2024/01/20 10:56:44;;;;;;;5.82;4.18;;;21.10;56.70;;;;;;5064265;28;20087;-29
2024/01/20 10:59:13;;;;;;;5.35;4.18;;;20.70;36.90;;;;;;5062143;28;20084;-32
2024/01/20 11:01:40;;;;;;;7.07;4.40;;;21.60;57.10;;;;;;5063794;28;20052;-29
2024/01/20 11:04:07;;;;;;;5.30;4.00;;;20.50;56.40;;;;;;5064984;28;20106;-28
2024/01/20 11:06:35;;;;;;;5.30;3.85;;;21.00;56.30;;;;;;5060137;28;20456;-28
2024/01/20 11:09:02;;;;;;;5.97;4.10;;;20.60;56.60;;;;;;5063142;28;20048;-28
2024/01/20 11:11:34;;;;;;;5.57;4.15;;;20.70;36.90;;;;;;5064403;28;20040;-33
2024/01/20 11:14:01;;;;;;;6.68;4.38;;;;;;;;;;5064451;28;20044;-33
2024/01/20 11:16:32;;;;;;;6.50;3.88;;;21.10;56.70;;;;;;5064197;28;20379;-28
2024/01/20 11:19:08;;;;;;;5.15;4.03;;;20.70;56.60;;;;;;5062305;28;20457;-28
2024/01/20 11:21:35;;;;;;;6.00;4.25;;;21.10;57.00;;;;;;5053524;28;20525;-29
2024/01/20 11:24:04;;;;;;;5.35;4.18;;;;;;;;;;5052691;28;20091;-33
2024/01/20 11:26:34;;;;;;;6.68;4.18;;;20.90;56.50;;;;;;5052668;28;20127;-28
2024/01/20 11:29:02;;;;;;;5.88;4.38;;;21.30;56.70;;;;;;5061778;28;20655;-37
2024/01/20 11:31:31;;;;;;;5.72;4.30;;;20.50;56.30;;;;;;5063695;28;20048;-34
2024/01/20 11:33:58;;;;;;;6.60;4.50;;;20.50;37.00;;;;;;5061080;28;20041;-33
2024/01/20 11:36:28;;;;;;;5.60;3.92;;;19.90;49.90;;;;;;5059413;28;20453;-36
2024/01/20 11:38:54;;;;;;;6.55;4.28;;;20.50;55.00;;;;;;5062439;28;20123;-36
2024/01/20 11:41:21;;;;;;;6.38;4.60;;;20.10;45.50;;;;;;5067127;28;20049;-36
2024/01/20 11:43:48;;;;;;;6.18;4.28;;;;;;;;;;5063571;28;20139;-33
2024/01/20 11:46:15;;;;;;;5.95;4.40;;;19.90;56.40;;;;;;5058730;28;20037;-39
2024/01/20 11:48:43;;;;;;;5.35;4.40;;;20.20;36.90;;;;;;5061755;28;20056;-34
2024/01/20 11:51:11;;;;;;;5.57;4.13;;;;;;;;;;5060989;28;20052;-33
2024/01/20 11:53:38;;;;;;;6.22;4.45;;;20.60;57.10;;;;;;5063875;28;20056;-28
2024/01/20 11:56:05;;;;;;;6.90;4.43;;;19.80;36.80;;;;;;5055750;28;20051;-31
2024/01/20 11:58:32;;;;;;;5.72;4.20;;;20.80;57.30;;;;;;5071213;28;20044;-37
2024/01/20 12:00:59;;;;;;;5.97;4.50;;;20.00;37.00;;;;;;5063235;28;20040;-31
2024/01/20 12:03:26;;;;;;;5.35;4.25;;;20.10;56.70;;;;;;5066365;28;20106;-34
2024/01/20 12:05:54;;;;;;;6.78;4.50;;;19.90;37.00;;;;;;5063038;28;20460;-35
2024/01/20 12:08:21;;;;;;;6.88;4.63;;;;;;;;;;5052105;28;20045;-34
2024/01/20 12:10:49;;;;;;;6.32;4.88;;;18.90;56.50;;;;;;5052536;28;20049;-28
2024/01/20 12:13:15;;;;;;;5.93;4.38;;;19.80;50.70;;;;;;5052618;28;20057;-28
2024/01/20 12:15:42;;;;;;;6.10;4.20;;;19.30;56.90;;;;;;5052104;28;20450;-29
2024/01/20 12:18:09;;;;;;;5.60;4.30;;;;;;;;;;5052104;28;20073;-32
2024/01/20 12:20:37;;;;;;;5.63;4.43;;;19.60;56.90;;;;;;5066597;28;20052;-28
2024/01/20 12:23:05;;;;;;;5.80;4.40;;;19.50;37.20;;;;;;5055116;28;20502;-27
2024/01/20 12:25:32;;;;;;;6.35;4.43;;;19.30;57.10;;;;;;5055269;28;20052;-30
2024/01/20 12:27:59;;;;;;;5.85;4.50;;;19.60;57.50;;;;;;5052778;28;20057;-27
2024/01/20 12:30:26;;;;;;;6.28;4.65;;;20.40;50.70;;;;;;5052378;28;20106;-28
2024/01/20 12:32:53;;;;;;;6.28;4.65;;;18.80;50.40;;;;;;5052644;28;20049;-28
2024/01/20 12:35:20;;;;;;;5.88;4.50;;;;;;;;;;5067890;28;20078;-34
2024/01/20 12:37:48;;;;;;;5.05;3.97;;;;;;;;;;5071793;28;20044;-37
2024/01/20 12:40:18;;;;;;;5.72;4.20;;;20.00;57.90;;;;;;5072081;28;20551;-37
2024/01/20 12:42:45;;;;;;;6.88;4.60;;;18.80;57.10;;;;;;5072487;28;20072;-27
2024/01/20 12:45:12;;;;;;;7.03;4.32;;;19.20;57.60;;;;;;5072035;28;20053;-29
2024/01/20 12:47:38;;;;;;;5.78;4.40;;;18.10;48.70;;;;;;5072205;28;20049;-28
2024/01/20 12:50:06;;;;;;;5.55;4.15;;;18.00;57.50;;;;;;5071667;28;20102;-27
2024/01/20 12:52:33;;;;;;;5.40;4.25;;;19.40;58.40;;;;;;5072320;28;20048;-27
2024/01/20 12:55:00;;;;;;;5.35;4.10;;;19.10;58.20;;;;;;5062817;28;20053;-28
2024/01/20 12:57:28;;;;;;;7.40;4.57;;;18.30;54.00;;;;;;5061298;28;20045;-28
2024/01/20 12:59:55;;;;;;;6.22;4.25;;;18.70;46.40;;;;;;5071848;28;20044;-29
2024/01/20 13:02:22;;;;;;;8.02;4.60;;;19.00;58.00;;;;;;5071868;28;20489;-33
2024/01/20 13:04:49;;;;;;;6.18;4.43;;;;;;;;;;5071873;28;20132;-33
2024/01/20 13:07:17;;;;;;;6.10;4.20;;;18.90;58.10;;;;;;5071459;28;20048;-33
2024/01/20 13:09:44;;;;;;;6.65;4.40;;;18.50;58.20;;;;;;5072002;28;20105;-27